createdAt,value
2023-03-18T00:01:17.811Z,7.60
2023-03-18T00:03:47.698Z,6.90
2023-03-18T00:06:18.388Z,6.60
2023-03-18T00:08:48.934Z,6.20
2023-03-18T00:11:19.380Z,7.10
2023-03-18T00:13:48.807Z,6.80
2023-03-18T00:16:17.697Z,6.90
2023-03-18T00:18:46.505Z,7.00
2023-03-18T00:21:16.360Z,6.60
2023-03-18T00:23:44.600Z,7.50
2023-03-18T00:26:13.281Z,7.50
2023-03-18T00:28:42.864Z,6.50
2023-03-18T00:31:13.506Z,6.70
2023-03-18T00:33:45.198Z,5.30
2023-03-18T00:36:17.905Z,7.50
2023-03-18T00:38:50.414Z,7.20
2023-03-18T00:41:18.978Z,6.30
2023-03-18T00:43:51.790Z,6.30
2023-03-18T00:46:22.881Z,6.80
2023-03-18T00:48:52.489Z,6.80
2023-03-18T00:51:22.228Z,5.80
2023-03-18T00:53:52.746Z,7.40
2023-03-18T00:56:23.444Z,5.70
2023-03-18T00:58:53.357Z,4.70
2023-03-18T01:01:23.464Z,6.70
2023-03-18T01:03:52.805Z,5.60
2023-03-18T01:06:25.029Z,5.30
2023-03-18T01:08:54.861Z,5.60
2023-03-18T01:11:26.316Z,6.40
2023-03-18T01:13:54.839Z,4.70
2023-03-18T01:16:24.131Z,6.70
2023-03-18T01:18:53.180Z,7.00
2023-03-18T01:21:22.141Z,6.10
2023-03-18T01:23:54.056Z,6.80
2023-03-18T01:26:23.113Z,6.20
2023-03-18T01:28:51.866Z,6.40
2023-03-18T01:31:20.176Z,7.00
2023-03-18T01:33:49.394Z,4.70
2023-03-18T01:36:17.819Z,6.80
2023-03-18T01:38:47.986Z,5.80
2023-03-18T01:41:16.701Z,6.60
2023-03-18T01:43:45.252Z,5.70
2023-03-18T01:46:36.065Z,4.60
2023-03-18T01:49:12.362Z,4.90
2023-03-18T01:51:46.101Z,5.10
2023-03-18T01:54:15.885Z,4.90
2023-03-18T01:56:46.249Z,5.70
2023-03-18T01:59:15.513Z,5.00
2023-03-18T02:01:48.663Z,5.80
2023-03-18T02:04:19.055Z,5.90
2023-03-18T02:06:47.764Z,5.20
2023-03-18T02:09:17.383Z,6.10
2023-03-18T02:11:49.328Z,5.00
2023-03-18T02:14:20.810Z,5.50
2023-03-18T02:16:56.823Z,5.20
2023-03-18T02:22:17.224Z,5.00
2023-03-18T02:24:53.124Z,5.00
2023-03-18T02:27:23.614Z,5.10
2023-03-18T02:29:54.542Z,5.60
2023-03-18T02:32:26.719Z,5.90
2023-03-18T02:34:56.228Z,4.20
2023-03-18T02:37:24.860Z,5.50
2023-03-18T02:39:53.476Z,5.30
2023-03-18T02:42:29.584Z,5.40
2023-03-18T02:44:59.726Z,4.90
2023-03-18T02:47:31.777Z,5.50
2023-03-18T02:50:00.816Z,5.00
2023-03-18T02:52:29.080Z,5.40
2023-03-18T02:54:58.787Z,5.10
2023-03-18T02:57:27.475Z,5.10
2023-03-18T02:59:56.688Z,6.30
2023-03-18T03:02:25.264Z,5.40
2023-03-18T03:04:53.604Z,5.90
2023-03-18T03:07:25.572Z,4.90
2023-03-18T03:09:54.163Z,4.00
2023-03-18T03:12:22.806Z,5.60
2023-03-18T03:14:53.901Z,5.10
2023-03-18T03:17:22.232Z,4.70
2023-03-18T03:19:52.283Z,4.30
2023-03-18T03:22:20.579Z,4.20
2023-03-18T03:24:49.381Z,4.30
2023-03-18T03:27:17.785Z,4.30
2023-03-18T03:29:46.424Z,3.70
2023-03-18T03:32:15.515Z,4.50
2023-03-18T03:34:43.756Z,4.50
2023-03-18T03:37:13.315Z,4.80
2023-03-18T03:39:41.532Z,3.90
2023-03-18T03:42:10.733Z,3.40
2023-03-18T03:44:38.949Z,4.10
2023-03-18T03:47:07.867Z,4.10
2023-03-18T03:49:36.832Z,3.70
2023-03-18T03:52:06.836Z,4.30
2023-03-18T03:54:37.559Z,4.10
2023-03-18T03:57:07.319Z,2.90
2023-03-18T03:59:35.715Z,4.00
2023-03-18T04:02:20.971Z,4.20
2023-03-18T04:04:49.838Z,3.50
2023-03-18T04:07:25.014Z,4.80
2023-03-18T04:09:55.303Z,4.00
2023-03-18T04:12:23.645Z,3.40
2023-03-18T04:14:56.933Z,4.30
2023-03-18T04:17:25.304Z,4.20
2023-03-18T04:19:53.775Z,4.00
2023-03-18T04:22:23.473Z,4.50
2023-03-18T04:24:51.817Z,5.20
2023-03-18T04:27:22.075Z,4.50
2023-03-18T04:29:50.752Z,4.20
2023-03-18T04:32:19.276Z,4.50
2023-03-18T04:34:48.046Z,3.20
2023-03-18T04:37:19.429Z,4.80
2023-03-18T04:39:48.483Z,4.00
2023-03-18T04:42:17.377Z,4.60
2023-03-18T04:44:45.988Z,4.20
2023-03-18T04:47:14.850Z,3.80
2023-03-18T04:49:44.361Z,4.10
2023-03-18T04:52:13.437Z,4.40
2023-03-18T04:54:42.227Z,4.30
2023-03-18T04:57:11.087Z,4.40
2023-03-18T04:59:43.267Z,3.80
2023-03-18T05:02:11.965Z,4.70
2023-03-18T05:04:40.641Z,3.80
2023-03-18T05:07:12.810Z,4.30
2023-03-18T05:09:41.903Z,4.40
2023-03-18T05:12:14.226Z,3.80
2023-03-18T05:14:44.090Z,4.70
2023-03-18T05:17:15.337Z,4.30
2023-03-18T05:19:46.335Z,3.80
2023-03-18T05:22:19.291Z,4.90
2023-03-18T05:24:49.075Z,4.10
2023-03-18T05:27:19.400Z,3.40
2023-03-18T05:29:55.560Z,4.70
2023-03-18T05:32:31.655Z,4.30
2023-03-18T05:35:03.220Z,4.20
2023-03-18T05:37:31.720Z,4.20
2023-03-18T05:40:09.409Z,4.40
2023-03-18T05:42:49.428Z,4.30
2023-03-18T05:45:24.693Z,3.80
2023-03-18T05:47:55.100Z,4.30
2023-03-18T05:50:33.206Z,4.10
2023-03-18T05:53:02.771Z,3.90
2023-03-18T05:55:34.877Z,4.00
2023-03-18T05:58:03.932Z,4.90
2023-03-18T06:00:33.068Z,4.60
2023-03-18T06:03:02.220Z,4.00
2023-03-18T06:05:31.584Z,4.20
2023-03-18T06:08:00.732Z,3.80
2023-03-18T06:10:29.755Z,3.90
2023-03-18T06:12:58.088Z,4.40
2023-03-18T06:15:26.850Z,4.10
2023-03-18T06:17:55.720Z,4.10
2023-03-18T06:20:23.949Z,4.20
2023-03-18T06:22:52.217Z,4.40
2023-03-18T06:25:21.913Z,4.50
2023-03-18T06:27:51.701Z,4.60
2023-03-18T06:30:22.155Z,4.60
2023-03-18T06:32:52.814Z,4.30
2023-03-18T06:35:21.546Z,4.20
2023-03-18T06:37:49.747Z,4.80
2023-03-18T06:40:18.570Z,4.10
2023-03-18T06:42:47.114Z,4.90
2023-03-18T06:45:25.866Z,4.20
2023-03-18T06:48:01.175Z,3.70
2023-03-18T06:50:31.536Z,4.60
2023-03-18T06:52:59.958Z,4.40
2023-03-18T06:55:31.123Z,3.80
2023-03-18T06:57:59.613Z,3.80
2023-03-18T07:00:35.397Z,3.90
2023-03-18T07:03:05.989Z,4.20
2023-03-18T07:05:35.505Z,4.10
2023-03-18T07:08:03.928Z,3.70
2023-03-18T07:10:32.200Z,3.30
2023-03-18T07:13:12.792Z,3.60
2023-03-18T07:15:42.283Z,4.20
2023-03-18T07:18:12.183Z,3.90
2023-03-18T07:20:41.613Z,4.00
2023-03-18T07:23:10.799Z,4.00
2023-03-18T07:25:41.616Z,4.30
2023-03-18T07:28:10.531Z,4.40
2023-03-18T07:30:39.610Z,4.10
2023-03-18T07:33:12.655Z,4.60
2023-03-18T07:35:41.480Z,3.70
2023-03-18T07:38:11.064Z,4.50
2023-03-18T07:40:40.273Z,4.30
2023-03-18T07:43:08.601Z,3.90
2023-03-18T07:45:36.783Z,3.60
2023-03-18T07:48:05.670Z,3.90
2023-03-18T07:50:34.755Z,3.70
2023-03-18T07:53:04.160Z,3.50
2023-03-18T07:55:32.654Z,4.20
2023-03-18T07:58:01.804Z,4.20
2023-03-18T08:00:30.384Z,4.20
2023-03-18T08:02:59.121Z,4.30
2023-03-18T08:05:27.351Z,5.00
2023-03-18T08:07:55.598Z,3.80
2023-03-18T08:10:24.876Z,4.00
2023-03-18T08:12:54.053Z,3.60
2023-03-18T08:15:23.542Z,3.70
2023-03-18T08:17:53.302Z,3.60
2023-03-18T08:20:22.448Z,3.90
2023-03-18T08:22:50.973Z,7.50
2023-03-18T08:25:22.362Z,3.70
2023-03-18T08:27:52.058Z,3.60
2023-03-18T08:30:24.856Z,4.00
2023-03-18T08:32:54.063Z,4.00
2023-03-18T08:35:23.661Z,4.00
2023-03-18T08:37:52.950Z,3.90
2023-03-18T08:40:22.143Z,3.90
2023-03-18T08:42:55.199Z,3.50
2023-03-18T08:45:28.068Z,3.90
2023-03-18T08:47:56.358Z,3.10
2023-03-18T08:50:28.071Z,4.30
2023-03-18T08:52:57.867Z,4.20
2023-03-18T08:55:30.726Z,4.70
2023-03-18T08:57:59.594Z,3.70
2023-03-18T09:00:28.886Z,4.00
2023-03-18T09:02:57.309Z,4.00
2023-03-18T09:05:25.634Z,4.50
2023-03-18T09:07:53.858Z,4.10
2023-03-18T09:10:22.490Z,4.60
2023-03-18T09:12:51.324Z,4.50
2023-03-18T09:15:20.493Z,3.50
2023-03-18T09:18:08.108Z,3.90
2023-03-18T09:20:38.308Z,5.40
2023-03-18T09:23:06.703Z,3.90
2023-03-18T09:25:35.767Z,4.50
2023-03-18T09:28:04.398Z,4.00
2023-03-18T09:30:33.285Z,3.70
2023-03-18T09:33:01.967Z,3.60
2023-03-18T09:35:30.852Z,3.30
2023-03-18T09:37:59.853Z,4.00
2023-03-18T09:40:30.863Z,4.40
2023-03-18T09:43:18.877Z,4.00
2023-03-18T09:45:57.696Z,4.00
2023-03-18T09:48:45.521Z,4.10
2023-03-18T09:51:29.305Z,4.10
2023-03-18T09:54:03.140Z,4.70
2023-03-18T09:56:35.470Z,3.50
2023-03-18T09:59:15.832Z,4.60
2023-03-18T10:01:47.208Z,3.70
2023-03-18T10:04:20.841Z,4.00
2023-03-18T10:06:50.772Z,4.10
2023-03-18T10:09:24.889Z,4.10
2023-03-18T10:11:59.460Z,3.60
2023-03-18T10:14:38.519Z,4.20
2023-03-18T10:17:20.058Z,4.30
2023-03-18T10:19:53.207Z,4.30
2023-03-18T10:22:37.953Z,4.10
2023-03-18T10:25:18.856Z,3.50
2023-03-18T10:28:03.501Z,3.80
2023-03-18T10:30:43.063Z,4.00
2023-03-18T10:33:18.451Z,4.20
2023-03-18T10:35:53.366Z,4.70
2023-03-18T10:38:25.932Z,4.50
2023-03-18T10:40:55.708Z,4.40
2023-03-18T10:43:27.588Z,3.80
2023-03-18T10:46:02.045Z,3.70
2023-03-18T10:48:33.228Z,3.90
2023-03-18T10:51:12.587Z,3.90
2023-03-18T10:53:46.320Z,3.90
2023-03-18T10:56:15.362Z,4.40
2023-03-18T10:58:43.844Z,3.80
2023-03-18T11:01:17.153Z,4.10
2023-03-18T11:03:52.214Z,4.00
2023-03-18T11:06:25.157Z,3.70
2023-03-18T11:09:05.800Z,4.00
2023-03-18T11:11:34.866Z,3.80
2023-03-18T11:14:04.603Z,3.70
2023-03-18T11:16:39.694Z,3.90
2023-03-18T11:21:44.803Z,3.90
2023-03-18T11:24:35.696Z,4.00
2023-03-18T11:27:06.996Z,3.90
2023-03-18T11:29:40.397Z,4.70
2023-03-18T11:32:25.550Z,4.30
2023-03-18T11:35:00.089Z,3.70
2023-03-18T11:37:32.209Z,3.90
2023-03-18T11:40:27.514Z,4.10
2023-03-18T11:42:58.816Z,3.80
2023-03-18T11:45:44.026Z,4.30
2023-03-18T11:48:18.331Z,4.50
2023-03-18T11:51:00.592Z,3.80
2023-03-18T11:53:39.869Z,3.50
2023-03-18T11:56:16.739Z,3.70
2023-03-18T11:59:13.810Z,3.30
2023-03-18T12:01:52.514Z,5.00
2023-03-18T12:04:48.958Z,4.10
2023-03-18T12:07:30.201Z,3.90
2023-03-18T12:10:12.322Z,4.60
2023-03-18T12:12:54.705Z,3.70
2023-03-18T12:15:35.855Z,4.30
2023-03-18T12:18:18.084Z,3.90
2023-03-18T12:20:51.592Z,4.50
2023-03-18T12:23:36.941Z,3.70
2023-03-18T12:26:09.009Z,4.10
2023-03-18T12:28:52.476Z,4.20
2023-03-18T12:31:34.689Z,3.90
2023-03-18T12:34:04.238Z,4.30
2023-03-18T12:36:49.999Z,4.10
2023-03-18T12:39:48.918Z,4.10
2023-03-18T12:42:27.691Z,4.20
2023-03-18T12:45:02.961Z,4.60
2023-03-18T12:47:37.372Z,4.00
2023-03-18T12:50:15.695Z,4.20
2023-03-18T12:52:48.644Z,4.80
2023-03-18T12:55:21.843Z,4.20
2023-03-18T12:57:56.466Z,3.60
2023-03-18T13:00:30.623Z,4.00
2023-03-18T13:03:07.381Z,4.10
2023-03-18T13:05:44.896Z,4.20
2023-03-18T13:08:44.579Z,4.10
2023-03-18T13:11:23.669Z,4.00
2023-03-18T13:13:55.792Z,4.40
2023-03-18T13:16:25.272Z,3.70
2023-03-18T13:18:57.640Z,4.30
2023-03-18T13:21:40.806Z,3.80
2023-03-18T13:24:27.333Z,5.70
2023-03-18T13:27:14.781Z,3.40
2023-03-18T13:29:51.064Z,3.90
2023-03-18T13:32:37.366Z,3.70
2023-03-18T13:35:26.667Z,4.40
2023-03-18T13:38:25.450Z,3.60
2023-03-18T13:41:09.816Z,4.00
2023-03-18T13:43:41.901Z,5.30
2023-03-18T13:46:19.782Z,5.30
2023-03-18T13:48:49.567Z,3.90
2023-03-18T13:51:44.754Z,4.60
2023-03-18T13:54:18.056Z,4.70
2023-03-18T13:56:55.336Z,4.40
2023-03-18T13:59:46.370Z,4.00
2023-03-18T14:02:34.853Z,4.10
2023-03-18T14:05:23.389Z,4.50
2023-03-18T14:07:55.233Z,4.60
2023-03-18T14:10:24.446Z,3.90
2023-03-18T14:12:53.080Z,3.80
2023-03-18T14:15:38.695Z,4.20
2023-03-18T14:18:25.343Z,3.90
2023-03-18T14:20:59.003Z,3.50
2023-03-18T14:23:38.040Z,3.90
2023-03-18T14:26:17.510Z,4.10
2023-03-18T14:28:48.437Z,3.70
2023-03-18T14:31:26.283Z,4.10
2023-03-18T14:34:02.212Z,4.10
2023-03-18T14:37:03.897Z,4.20
2023-03-18T14:39:37.698Z,4.50
2023-03-18T14:42:13.196Z,3.90
2023-03-18T14:44:49.232Z,4.20
2023-03-18T14:47:37.447Z,4.60
2023-03-18T14:50:17.596Z,4.40
2023-03-18T14:52:55.307Z,4.20
2023-03-18T14:55:28.972Z,4.60
2023-03-18T14:57:57.509Z,4.30
2023-03-18T15:00:28.554Z,4.90
2023-03-18T15:03:03.819Z,4.40
2023-03-18T15:08:07.411Z,5.10
2023-03-18T15:10:38.550Z,5.50
2023-03-18T15:13:12.352Z,4.20
2023-03-18T15:15:42.143Z,5.10
2023-03-18T15:18:21.712Z,4.70
2023-03-18T15:20:52.907Z,4.40
2023-03-18T15:23:28.806Z,5.00
2023-03-18T15:25:57.523Z,4.80
2023-03-18T15:28:28.532Z,5.00
2023-03-18T15:30:58.918Z,5.10
2023-03-18T15:33:31.056Z,4.80
2023-03-18T15:36:06.446Z,4.90
2023-03-18T15:38:35.385Z,5.10
2023-03-18T15:41:06.725Z,4.90
2023-03-18T15:43:40.937Z,5.50
2023-03-18T15:46:18.033Z,5.80
2023-03-18T15:48:53.967Z,5.70
2023-03-18T15:51:29.456Z,5.40
2023-03-18T15:54:03.012Z,4.60
2023-03-18T15:56:32.949Z,5.50
2023-03-18T15:59:08.412Z,4.50
2023-03-18T16:01:37.296Z,5.60
2023-03-18T16:04:12.067Z,5.40
2023-03-18T16:06:40.640Z,5.70
2023-03-18T16:09:17.360Z,5.90
2023-03-18T16:11:49.981Z,5.40
2023-03-18T16:14:20.976Z,6.70
2023-03-18T16:16:49.399Z,6.40
2023-03-18T16:19:24.712Z,5.60
2023-03-18T16:24:20.851Z,5.70
2023-03-18T16:26:49.753Z,4.20
2023-03-18T16:29:22.768Z,5.70
2023-03-18T16:31:51.105Z,4.80
2023-03-18T16:34:21.734Z,5.30
2023-03-18T16:36:51.466Z,6.30
2023-03-18T16:39:23.731Z,6.10
2023-03-18T16:41:52.138Z,5.40
2023-03-18T16:44:22.943Z,6.10
2023-03-18T16:46:54.243Z,5.90
2023-03-18T16:49:25.079Z,5.90
2023-03-18T16:51:54.142Z,5.70
2023-03-18T16:54:25.133Z,6.20
2023-03-18T16:56:57.258Z,5.80
2023-03-18T16:59:31.376Z,4.80
2023-03-18T17:01:59.813Z,5.70
2023-03-18T17:04:31.167Z,5.80
2023-03-18T17:07:03.650Z,5.70
2023-03-18T17:09:32.541Z,6.50
2023-03-18T17:12:05.012Z,6.40
2023-03-18T17:14:38.013Z,6.30
2023-03-18T17:17:11.925Z,6.00
2023-03-18T17:19:40.700Z,6.50
2023-03-18T17:22:20.880Z,6.60
2023-03-18T17:24:50.438Z,6.10
2023-03-18T17:27:23.171Z,6.20
2023-03-18T17:29:52.342Z,6.80
2023-03-18T17:32:21.789Z,6.40
2023-03-18T17:34:51.409Z,6.40
2023-03-18T17:37:20.570Z,6.20
2023-03-18T17:39:49.186Z,5.00
2023-03-18T17:42:28.397Z,7.40
2023-03-18T17:44:57.958Z,5.60
2023-03-18T17:47:26.606Z,6.20
2023-03-18T17:49:55.192Z,6.30
2023-03-18T17:52:24.642Z,8.20
2023-03-18T17:54:53.839Z,5.90
2023-03-18T17:57:22.413Z,6.30
2023-03-18T17:59:51.012Z,5.80
2023-03-18T18:02:20.662Z,6.10
2023-03-18T18:04:49.205Z,6.80
2023-03-18T18:07:21.135Z,7.20
2023-03-18T18:09:52.829Z,6.10
2023-03-18T18:12:24.955Z,6.80
2023-03-18T18:14:53.238Z,9.00
2023-03-18T18:17:22.452Z,7.80
2023-03-18T18:19:51.287Z,8.30
2023-03-18T18:22:24.368Z,8.30
2023-03-18T18:24:53.248Z,8.20
2023-03-18T18:27:23.732Z,8.00
2023-03-18T18:29:52.888Z,8.10
2023-03-18T18:32:24.287Z,8.90
2023-03-18T18:34:53.461Z,8.20
2023-03-18T18:37:21.760Z,8.80
2023-03-18T18:39:52.291Z,8.20
2023-03-18T18:42:21.189Z,8.30
2023-03-18T18:44:52.117Z,8.20
2023-03-18T18:47:20.509Z,8.60
2023-03-18T18:49:48.854Z,8.90
2023-03-18T18:52:17.178Z,9.40
2023-03-18T18:54:45.741Z,7.50
2023-03-18T18:57:26.068Z,8.30
2023-03-18T18:59:56.387Z,9.50
2023-03-18T19:02:33.170Z,9.80
2023-03-18T19:05:04.127Z,10.10
2023-03-18T19:07:33.940Z,9.60
2023-03-18T19:10:03.438Z,9.90
2023-03-18T19:12:32.037Z,11.80
2023-03-18T19:15:00.493Z,10.90
2023-03-18T19:17:28.804Z,9.70
2023-03-18T19:19:59.721Z,10.50
2023-03-18T19:22:28.019Z,10.90
2023-03-18T19:24:56.795Z,10.90
2023-03-18T19:27:28.478Z,10.00
2023-03-18T19:30:00.846Z,10.40
2023-03-18T19:32:29.560Z,9.80
2023-03-18T19:34:58.013Z,9.80
2023-03-18T19:37:28.615Z,10.40
2023-03-18T19:39:59.300Z,9.40
2023-03-18T19:42:27.511Z,9.70
2023-03-18T19:44:55.916Z,10.70
2023-03-18T19:47:26.570Z,9.10
2023-03-18T19:49:55.239Z,10.90
2023-03-18T19:52:25.757Z,10.80
2023-03-18T19:54:55.091Z,10.20
2023-03-18T19:57:26.980Z,11.20
2023-03-18T19:59:58.280Z,10.40
2023-03-18T20:02:28.085Z,10.60
2023-03-18T20:04:58.670Z,13.30
2023-03-18T20:07:29.633Z,11.90
2023-03-18T20:09:57.960Z,11.80
2023-03-18T20:12:29.766Z,11.00
2023-03-18T20:14:58.061Z,10.30
2023-03-18T20:17:34.259Z,11.20
2023-03-18T20:20:02.648Z,10.10
2023-03-18T20:22:34.203Z,9.70
2023-03-18T20:25:04.401Z,11.70
2023-03-18T20:27:32.660Z,10.90
2023-03-18T20:30:01.056Z,11.50
2023-03-18T20:32:31.895Z,11.10
2023-03-18T20:35:02.881Z,10.90
2023-03-18T20:37:36.232Z,9.10
2023-03-18T20:40:14.282Z,11.30
2023-03-18T20:42:42.477Z,9.40
2023-03-18T20:45:15.673Z,11.00
2023-03-18T20:47:44.256Z,10.70
2023-03-18T20:50:15.485Z,11.80
2023-03-18T20:52:46.566Z,11.20
2023-03-18T20:55:24.968Z,10.30
2023-03-18T20:57:54.101Z,11.20
2023-03-18T21:00:24.999Z,11.20
2023-03-18T21:02:55.963Z,11.40
2023-03-18T21:05:25.596Z,11.30
2023-03-18T21:07:54.357Z,9.90
2023-03-18T21:10:24.439Z,10.90
2023-03-18T21:12:54.954Z,10.70
2023-03-18T21:15:25.826Z,9.90
2023-03-18T21:17:55.086Z,11.30
2023-03-18T21:20:27.217Z,9.80
2023-03-18T21:22:56.462Z,11.20
2023-03-18T21:25:26.946Z,12.00
2023-03-18T21:27:55.766Z,10.80
2023-03-18T21:30:24.335Z,10.60
2023-03-18T21:32:52.841Z,11.00
2023-03-18T21:35:23.079Z,10.50
2023-03-18T21:37:51.908Z,11.50
2023-03-18T21:40:22.663Z,12.10
2023-03-18T21:42:51.628Z,10.80
2023-03-18T21:45:23.134Z,12.30
2023-03-18T21:47:52.287Z,13.50
2023-03-18T21:50:23.810Z,11.20
2023-03-18T21:52:53.548Z,13.20
2023-03-18T21:55:22.280Z,12.00
2023-03-18T21:57:51.502Z,14.00
2023-03-18T22:00:21.227Z,11.80
2023-03-18T22:02:49.846Z,11.90
2023-03-18T22:05:20.040Z,11.90
2023-03-18T22:07:49.818Z,11.20
2023-03-18T22:10:20.629Z,10.80
2023-03-18T22:12:49.448Z,11.30
2023-03-18T22:15:35.962Z,12.60
2023-03-18T22:18:05.521Z,11.40
2023-03-18T22:20:35.273Z,11.90
2023-03-18T22:23:16.031Z,12.50
2023-03-18T22:25:45.878Z,11.80
2023-03-18T22:28:14.062Z,11.60
2023-03-18T22:30:44.173Z,11.90
2023-03-18T22:33:21.116Z,12.60
2023-03-18T22:35:49.438Z,11.70
2023-03-18T22:38:19.372Z,12.70
2023-03-18T22:40:49.243Z,12.10
2023-03-18T22:43:27.217Z,12.80
2023-03-18T22:45:56.022Z,12.40
2023-03-18T22:48:25.136Z,11.60
2023-03-18T22:50:54.455Z,11.70
2023-03-18T22:53:25.329Z,11.40
2023-03-18T22:55:55.906Z,12.80
2023-03-18T22:58:26.783Z,11.30
2023-03-18T23:00:56.573Z,12.20
2023-03-18T23:03:28.470Z,12.00
2023-03-18T23:05:58.363Z,13.40
2023-03-18T23:08:27.587Z,13.20
2023-03-18T23:10:58.800Z,13.30
2023-03-18T23:13:30.148Z,12.30
2023-03-18T23:15:58.495Z,11.40
2023-03-18T23:18:26.722Z,10.60
2023-03-18T23:20:55.364Z,12.10
2023-03-18T23:23:23.720Z,11.20
2023-03-18T23:25:52.295Z,11.30
2023-03-18T23:28:20.497Z,11.30
2023-03-18T23:30:51.396Z,10.00
2023-03-18T23:33:20.163Z,11.00
2023-03-18T23:35:48.542Z,11.90
2023-03-18T23:38:17.133Z,9.80
2023-03-18T23:40:45.402Z,11.40
2023-03-18T23:43:13.965Z,12.70
2023-03-18T23:45:42.295Z,11.80
2023-03-18T23:48:10.619Z,12.20
2023-03-18T23:50:38.943Z,13.10
2023-03-18T23:53:07.100Z,12.90
2023-03-18T23:55:35.781Z,12.00
2023-03-18T23:58:04.368Z,12.10
